Terminal Aerodrome Forecast
Issued by NWS

Home | Current Version | Previous Version | Text Only | Print | Product List | Glossary On
Versions: 1 2 3 4 5 6 7 8 9 10 11 12 13
000
FTUS45 KABQ 210541
TAFFMN
TAF
KFMN 210541Z 2106/2206 26011KT P6SM SCT100
      TEMPO 2106/2109 26015G25KT BKN100
     FM211600 29015G25KT P6SM SKC
     FM211900 29022G34KT P6SM SKC
     FM220100 28012G20KT P6SM SKC=

USA.gov is the U.S. government's official web portal to all federal, state and local government web resources and services.